sensor_id;sensor_type;location;lat;lon;timestamp;pressure;altitude;pressure_sealevel;temperature;humidity
44751;BME280;30477;48.224;11.470;2023-05-24T00:09:11;96196.06;;;14.91;62.78
44751;BME280;30477;48.224;11.470;2023-05-24T00:11:36;96187.78;;;14.95;62.67
44751;BME280;30477;48.224;11.470;2023-05-24T00:14:02;96190.84;;;14.91;62.93
44751;BME280;30477;48.224;11.470;2023-05-24T00:16:27;96199.81;;;14.96;62.62
44751;BME280;30477;48.224;11.470;2023-05-24T00:18:52;96196.41;;;14.96;62.71
44751;BME280;30477;48.224;11.470;2023-05-24T00:21:19;96195.25;;;14.82;63.12
44751;BME280;30477;48.224;11.470;2023-05-24T00:23:44;96201.47;;;14.81;63.24
44751;BME280;30477;48.224;11.470;2023-05-24T00:26:09;96193.66;;;14.73;63.21
44751;BME280;30477;48.224;11.470;2023-05-24T00:28:35;96192.34;;;14.69;63.35
44751;BME280;30477;48.224;11.470;2023-05-24T00:31:00;96186.63;;;14.65;63.59
44751;BME280;30477;48.224;11.470;2023-05-24T00:33:26;96185.50;;;14.76;63.73
44751;BME280;30477;48.224;11.470;2023-05-24T00:35:53;96181.28;;;14.75;63.18
44751;BME280;30477;48.224;11.470;2023-05-24T00:38:26;96190.69;;;14.68;63.33
44751;BME280;30477;48.224;11.470;2023-05-24T00:40:52;96189.09;;;14.67;63.64
44751;BME280;30477;48.224;11.470;2023-05-24T00:43:20;96186.78;;;14.72;63.62
44751;BME280;30477;48.224;11.470;2023-05-24T00:45:45;96188.75;;;14.61;63.85
44751;BME280;30477;48.224;11.470;2023-05-24T00:48:11;96185.81;;;14.56;63.99
44751;BME280;30477;48.224;11.470;2023-05-24T00:50:37;96191.16;;;14.55;64.29
44751;BME280;30477;48.224;11.470;2023-05-24T00:53:03;96183.22;;;14.56;64.19
44751;BME280;30477;48.224;11.470;2023-05-24T00:55:29;96185.81;;;14.56;64.24
44751;BME280;30477;48.224;11.470;2023-05-24T00:57:56;96184.00;;;14.57;64.49
44751;BME280;30477;48.224;11.470;2023-05-24T01:00:22;96183.88;;;14.58;64.43
44751;BME280;30477;48.224;11.470;2023-05-24T01:02:48;96180.78;;;14.71;64.33
44751;BME280;30477;48.224;11.470;2023-05-24T01:05:15;96183.06;;;14.66;64.29
44751;BME280;30477;48.224;11.470;2023-05-24T01:10:36;96182.22;;;14.66;63.95
44751;BME280;30477;48.224;11.470;2023-05-24T01:13:20;96177.00;;;14.66;64.08
44751;BME280;30477;48.224;11.470;2023-05-24T01:16:11;96179.97;;;14.63;63.96
44751;BME280;30477;48.224;11.470;2023-05-24T01:18:54;96179.66;;;14.57;64.17
44751;BME280;30477;48.224;11.470;2023-05-24T01:21:53;96178.31;;;14.53;64.10
44751;BME280;30477;48.224;11.470;2023-05-24T01:24:36;96173.41;;;14.50;64.55
44751;BME280;30477;48.224;11.470;2023-05-24T01:27:07;96174.09;;;14.60;64.76
44751;BME280;30477;48.224;11.470;2023-05-24T01:29:34;96177.19;;;14.64;64.37
44751;BME280;30477;48.224;11.470;2023-05-24T01:32:01;96175.72;;;14.70;64.48
44751;BME280;30477;48.224;11.470;2023-05-24T01:34:27;96174.41;;;14.74;63.76
44751;BME280;30477;48.224;11.470;2023-05-24T01:36:52;96174.09;;;14.77;64.08
44751;BME280;30477;48.224;11.470;2023-05-24T01:39:19;96172.16;;;14.79;63.77
44751;BME280;30477;48.224;11.470;2023-05-24T01:47:27;96168.75;;;14.70;63.44
44751;BME280;30477;48.224;11.470;2023-05-24T01:50:24;96165.94;;;14.72;63.50
44751;BME280;30477;48.224;11.470;2023-05-24T01:52:51;96170.84;;;14.67;63.50
44751;BME280;30477;48.224;11.470;2023-05-24T01:55:17;96170.53;;;14.61;63.85
44751;BME280;30477;48.224;11.470;2023-05-24T01:57:45;96176.72;;;14.69;63.68
44751;BME280;30477;48.224;11.470;2023-05-24T02:00:13;96176.72;;;14.69;63.87
44751;BME280;30477;48.224;11.470;2023-05-24T02:02:40;96172.31;;;14.69;63.99
44751;BME280;30477;48.224;11.470;2023-05-24T02:05:05;96174.75;;;14.71;63.25
44751;BME280;30477;48.224;11.470;2023-05-24T02:07:31;96170.19;;;14.65;63.55
44751;BME280;30477;48.224;11.470;2023-05-24T02:09:56;96174.09;;;14.69;63.90
44751;BME280;30477;48.224;11.470;2023-05-24T02:12:21;96164.03;;;14.57;63.69
44751;BME280;30477;48.224;11.470;2023-05-24T02:14:47;96170.84;;;14.58;63.63
44751;BME280;30477;48.224;11.470;2023-05-24T02:17:15;96170.84;;;14.58;63.87
44751;BME280;30477;48.224;11.470;2023-05-24T02:19:42;96170.03;;;14.66;63.99
44751;BME280;30477;48.224;11.470;2023-05-24T02:22:07;96161.72;;;14.63;63.84
44751;BME280;30477;48.224;11.470;2023-05-24T02:24:33;96167.25;;;14.68;63.74
44751;BME280;30477;48.224;11.470;2023-05-24T02:26:58;96166.78;;;14.72;63.64
44751;BME280;30477;48.224;11.470;2023-05-24T02:29:23;96174.41;;;14.66;63.71
44751;BME280;30477;48.224;11.470;2023-05-24T02:31:49;96173.78;;;14.64;63.25
44751;BME280;30477;48.224;11.470;2023-05-24T02:34:20;96175.25;;;14.66;63.54
44751;BME280;30477;48.224;11.470;2023-05-24T02:36:47;96179.31;;;14.60;63.31
44751;BME280;30477;48.224;11.470;2023-05-24T02:39:12;96168.69;;;14.54;63.51
44751;BME280;30477;48.224;11.470;2023-05-24T02:41:38;96175.09;;;14.59;63.67
44751;BME280;30477;48.224;11.470;2023-05-24T02:44:03;96166.28;;;14.60;63.44
44751;BME280;30477;48.224;11.470;2023-05-24T02:46:28;96164.28;;;14.54;63.47
44751;BME280;30477;48.224;11.470;2023-05-24T02:48:54;96163.00;;;14.50;63.41
44751;BME280;30477;48.224;11.470;2023-05-24T02:51:19;96164.28;;;14.38;63.63
44751;BME280;30477;48.224;11.470;2023-05-24T02:53:45;96159.06;;;14.38;64.10
44751;BME280;30477;48.224;11.470;2023-05-24T02:56:10;96162.00;;;14.35;64.31
44751;BME280;30477;48.224;11.470;2023-05-24T02:58:38;96160.19;;;14.19;64.24
44751;BME280;30477;48.224;11.470;2023-05-24T03:01:05;96161.66;;;14.13;64.61
44751;BME280;30477;48.224;11.470;2023-05-24T03:03:31;96163.25;;;14.14;64.47
44751;BME280;30477;48.224;11.470;2023-05-24T03:05:56;96163.41;;;14.05;64.87
44751;BME280;30477;48.224;11.470;2023-05-24T03:08:21;96166.81;;;13.97;65.05
44751;BME280;30477;48.224;11.470;2023-05-24T03:10:47;96163.56;;;13.95;65.33
44751;BME280;30477;48.224;11.470;2023-05-24T03:13:12;96170.41;;;14.04;65.51
44751;BME280;30477;48.224;11.470;2023-05-24T03:15:38;96159.03;;;14.05;65.28
44751;BME280;30477;48.224;11.470;2023-05-24T03:18:03;96164.88;;;14.07;65.40
44751;BME280;30477;48.224;11.470;2023-05-24T03:20:28;96158.69;;;14.08;64.84
44751;BME280;30477;48.224;11.470;2023-05-24T03:22:54;96165.22;;;14.12;65.41
44751;BME280;30477;48.224;11.470;2023-05-24T03:25:20;96176.13;;;14.16;65.55
44751;BME280;30477;48.224;11.470;2023-05-24T03:27:45;96173.69;;;14.14;65.40
44751;BME280;30477;48.224;11.470;2023-05-24T03:30:11;96175.00;;;14.18;65.54
44751;BME280;30477;48.224;11.470;2023-05-24T03:32:36;96175.44;;;14.06;65.55
44751;BME280;30477;48.224;11.470;2023-05-24T03:35:01;96176.25;;;14.06;65.40
44751;BME280;30477;48.224;11.470;2023-05-24T03:37:27;96175.63;;;14.12;65.56
44751;BME280;30477;48.224;11.470;2023-05-24T03:39:52;96185.09;;;14.13;65.05
44751;BME280;30477;48.224;11.470;2023-05-24T03:42:18;96186.38;;;14.09;64.71
44751;BME280;30477;48.224;11.470;2023-05-24T03:44:43;96189.75;;;14.01;64.70
44751;BME280;30477;48.224;11.470;2023-05-24T03:47:08;96188.94;;;14.01;64.94
44751;BME280;30477;48.224;11.470;2023-05-24T03:49:34;96181.13;;;14.01;64.76
44751;BME280;30477;48.224;11.470;2023-05-24T03:51:59;96187.13;;;13.93;64.77
44751;BME280;30477;48.224;11.470;2023-05-24T03:54:25;96188.25;;;13.91;64.71
44751;BME280;30477;48.224;11.470;2023-05-24T03:56:50;96188.25;;;13.91;64.38
44751;BME280;30477;48.224;11.470;2023-05-24T03:59:17;96185.66;;;13.91;64.31
44751;BME280;30477;48.224;11.470;2023-05-24T04:01:42;96197.00;;;13.81;64.43
44751;BME280;30477;48.224;11.470;2023-05-24T04:04:08;96202.53;;;13.78;64.64
44751;BME280;30477;48.224;11.470;2023-05-24T04:06:33;96196.69;;;13.85;64.58
44751;BME280;30477;48.224;11.470;2023-05-24T04:09:01;96202.19;;;13.81;64.10
44751;BME280;30477;48.224;11.470;2023-05-24T04:11:28;96205.44;;;13.75;64.18
44751;BME280;30477;48.224;11.470;2023-05-24T04:13:56;96202.84;;;13.75;64.37
44751;BME280;30477;48.224;11.470;2023-05-24T04:16:24;96204.78;;;13.81;64.22
44751;BME280;30477;48.224;11.470;2023-05-24T04:18:50;96199.94;;;13.87;64.20
44751;BME280;30477;48.224;11.470;2023-05-24T04:21:15;96198.81;;;13.89;63.84
44751;BME280;30477;48.224;11.470;2023-05-24T04:23:40;96195.06;;;13.92;63.41
44751;BME280;30477;48.224;11.470;2023-05-24T04:26:06;96202.56;;;13.87;63.18
44751;BME280;30477;48.224;11.470;2023-05-24T04:28:32;96198.63;;;13.83;62.95
44751;BME280;30477;48.224;11.470;2023-05-24T04:30:58;96198.78;;;13.81;63.17
44751;BME280;30477;48.224;11.470;2023-05-24T04:33:23;96200.91;;;13.77;63.44
44751;BME280;30477;48.224;11.470;2023-05-24T04:35:49;96193.53;;;13.73;63.08
44751;BME280;30477;48.224;11.470;2023-05-24T04:38:14;96200.19;;;13.67;63.54
44751;BME280;30477;48.224;11.470;2023-05-24T04:40:40;96199.53;;;13.65;63.49
44751;BME280;30477;48.224;11.470;2023-05-24T04:43:05;96205.13;;;13.78;63.32
44751;BME280;30477;48.224;11.470;2023-05-24T04:45:31;96212.66;;;13.98;63.42
44751;BME280;30477;48.224;11.470;2023-05-24T04:47:58;96205.31;;;14.44;63.02
44751;BME280;30477;48.224;11.470;2023-05-24T04:50:23;96200.16;;;14.60;61.77
44751;BME280;30477;48.224;11.470;2023-05-24T04:52:48;96197.88;;;14.57;61.37
44751;BME280;30477;48.224;11.470;2023-05-24T04:55:14;96203.69;;;14.43;60.91
44751;BME280;30477;48.224;11.470;2023-05-24T04:57:39;96204.16;;;14.55;60.73
44751;BME280;30477;48.224;11.470;2023-05-24T05:00:05;96219.25;;;14.18;61.00
44751;BME280;30477;48.224;11.470;2023-05-24T05:02:31;96214.28;;;13.91;61.13
44751;BME280;30477;48.224;11.470;2023-05-24T05:04:57;96215.56;;;13.87;61.58
44751;BME280;30477;48.224;11.470;2023-05-24T05:07:22;96210.97;;;13.80;61.76
44751;BME280;30477;48.224;11.470;2023-05-24T05:09:47;96216.50;;;13.77;62.63
44751;BME280;30477;48.224;11.470;2023-05-24T05:12:13;96216.84;;;13.83;62.51
44751;BME280;30477;48.224;11.470;2023-05-24T05:14:38;96210.19;;;13.80;62.86
44751;BME280;30477;48.224;11.470;2023-05-24T05:17:03;96219.13;;;13.77;62.69
44751;BME280;30477;48.224;11.470;2023-05-24T05:19:29;96219.41;;;14.17;62.79
44751;BME280;30477;48.224;11.470;2023-05-24T05:21:55;96218.94;;;14.21;61.98
44751;BME280;30477;48.224;11.470;2023-05-24T05:24:20;96217.00;;;14.32;61.76
44751;BME280;30477;48.224;11.470;2023-05-24T05:26:46;96219.78;;;14.30;61.60
44751;BME280;30477;48.224;11.470;2023-05-24T05:29:11;96208.19;;;14.16;61.70
44751;BME280;30477;48.224;11.470;2023-05-24T05:31:36;96208.94;;;14.00;61.73
44751;BME280;30477;48.224;11.470;2023-05-24T05:34:03;96204.28;;;14.20;61.56
44751;BME280;30477;48.224;11.470;2023-05-24T05:36:29;96208.75;;;13.94;61.28
44751;BME280;30477;48.224;11.470;2023-05-24T05:38:57;96210.09;;;14.06;61.67
44751;BME280;30477;48.224;11.470;2023-05-24T05:41:22;96211.69;;;13.91;62.13
44751;BME280;30477;48.224;11.470;2023-05-24T05:43:47;96208.41;;;13.89;61.78
44751;BME280;30477;48.224;11.470;2023-05-24T05:46:13;96197.03;;;13.90;61.98
44751;BME280;30477;48.224;11.470;2023-05-24T05:48:39;96206.44;;;13.83;62.29
44751;BME280;30477;48.224;11.470;2023-05-24T05:51:05;96199.78;;;13.80;62.38
44751;BME280;30477;48.224;11.470;2023-05-24T05:53:32;96207.75;;;13.87;62.41
44751;BME280;30477;48.224;11.470;2023-05-24T05:55:58;96209.41;;;13.96;62.79
44751;BME280;30477;48.224;11.470;2023-05-24T05:58:23;96206.97;;;14.02;62.47
44751;BME280;30477;48.224;11.470;2023-05-24T06:00:49;96207.97;;;14.01;62.70
44751;BME280;30477;48.224;11.470;2023-05-24T06:03:15;96197.06;;;14.06;62.92
44751;BME280;30477;48.224;11.470;2023-05-24T06:05:40;96206.22;;;14.18;62.67
44751;BME280;30477;48.224;11.470;2023-05-24T06:08:06;96203.19;;;14.39;62.52
44751;BME280;30477;48.224;11.470;2023-05-24T06:10:31;96191.94;;;14.31;61.73
44751;BME280;30477;48.224;11.470;2023-05-24T06:12:56;96199.09;;;14.29;61.68
44751;BME280;30477;48.224;11.470;2023-05-24T06:15:21;96202.38;;;14.39;62.19
44751;BME280;30477;48.224;11.470;2023-05-24T06:17:48;96198.31;;;14.53;61.25
44751;BME280;30477;48.224;11.470;2023-05-24T06:20:14;96195.91;;;14.76;62.34
44751;BME280;30477;48.224;11.470;2023-05-24T06:22:41;96196.25;;;14.73;61.69
44751;BME280;30477;48.224;11.470;2023-05-24T06:25:07;96191.19;;;14.79;61.89
44751;BME280;30477;48.224;11.470;2023-05-24T06:27:32;96186.63;;;14.81;61.06
44751;BME280;30477;48.224;11.470;2023-05-24T06:29:58;96191.53;;;14.85;61.39
44751;BME280;30477;48.224;11.470;2023-05-24T06:32:23;96202.94;;;14.92;61.44
44751;BME280;30477;48.224;11.470;2023-05-24T06:34:48;96195.56;;;15.12;60.58
44751;BME280;30477;48.224;11.470;2023-05-24T06:37:14;96195.88;;;15.33;60.85
44751;BME280;30477;48.224;11.470;2023-05-24T06:39:40;96196.16;;;15.55;59.36
44751;BME280;30477;48.224;11.470;2023-05-24T06:42:09;96189.03;;;15.32;59.45
44751;BME280;30477;48.224;11.470;2023-05-24T06:44:34;96194.22;;;15.32;59.80
44751;BME280;30477;48.224;11.470;2023-05-24T06:47:00;96198.16;;;15.12;59.87
44751;BME280;30477;48.224;11.470;2023-05-24T06:49:26;96199.44;;;15.32;60.66
44751;BME280;30477;48.224;11.470;2023-05-24T06:51:51;96199.84;;;16.39;60.18
44751;BME280;30477;48.224;11.470;2023-05-24T06:54:17;96199.34;;;16.67;57.94
44751;BME280;30477;48.224;11.470;2023-05-24T06:56:42;96200.88;;;16.38;57.34
44751;BME280;30477;48.224;11.470;2023-05-24T06:59:08;96206.53;;;15.79;57.09
44751;BME280;30477;48.224;11.470;2023-05-24T07:01:33;96210.69;;;15.33;58.31
44751;BME280;30477;48.224;11.470;2023-05-24T07:03:59;96213.34;;;15.08;58.76
44751;BME280;30477;48.224;11.470;2023-05-24T07:06:25;96209.94;;;14.99;58.81
44751;BME280;30477;48.224;11.470;2023-05-24T07:08:51;96217.75;;;15.08;59.44
44751;BME280;30477;48.224;11.470;2023-05-24T07:11:16;96217.41;;;15.27;59.43
44751;BME280;30477;48.224;11.470;2023-05-24T07:13:41;96220.13;;;15.58;59.00
44751;BME280;30477;48.224;11.470;2023-05-24T07:16:07;96215.34;;;15.78;58.67
44751;BME280;30477;48.224;11.470;2023-05-24T07:18:32;96220.94;;;16.07;57.61
44751;BME280;30477;48.224;11.470;2023-05-24T07:20:57;96220.00;;;16.31;57.25
44751;BME280;30477;48.224;11.470;2023-05-24T07:23:23;96219.53;;;16.50;56.46
44751;BME280;30477;48.224;11.470;2023-05-24T07:25:49;96216.91;;;16.27;56.66
44751;BME280;30477;48.224;11.470;2023-05-24T07:28:17;96223.47;;;16.23;56.42
44751;BME280;30477;48.224;11.470;2023-05-24T07:30:44;96222.66;;;16.22;56.65
44751;BME280;30477;48.224;11.470;2023-05-24T07:33:10;96214.44;;;16.34;56.89
44751;BME280;30477;48.224;11.470;2023-05-24T07:35:38;96221.59;;;16.40;56.32
44751;BME280;30477;48.224;11.470;2023-05-24T07:38:04;96223.13;;;16.26;56.47
44751;BME280;30477;48.224;11.470;2023-05-24T07:40:32;96224.59;;;15.89;56.71
44751;BME280;30477;48.224;11.470;2023-05-24T07:42:57;96221.81;;;15.91;57.38
44751;BME280;30477;48.224;11.470;2023-05-24T07:45:22;96225.31;;;16.14;56.84
44751;BME280;30477;48.224;11.470;2023-05-24T07:47:48;96221.03;;;16.21;56.23
44751;BME280;30477;48.224;11.470;2023-05-24T07:50:15;96213.41;;;16.12;56.38
44751;BME280;30477;48.224;11.470;2023-05-24T07:52:44;96223.94;;;16.27;55.98
44751;BME280;30477;48.224;11.470;2023-05-24T07:55:09;96223.28;;;16.24;56.22
44751;BME280;30477;48.224;11.470;2023-05-24T07:57:55;96216.00;;;16.12;55.94
44751;BME280;30477;48.224;11.470;2023-05-24T08:00:20;96225.66;;;16.11;55.98
44751;BME280;30477;48.224;11.470;2023-05-24T08:02:47;96228.25;;;16.11;56.25
44751;BME280;30477;48.224;11.470;2023-05-24T08:05:12;96228.13;;;16.05;55.81
44751;BME280;30477;48.224;11.470;2023-05-24T08:07:38;96216.56;;;15.99;55.70
44751;BME280;30477;48.224;11.470;2023-05-24T08:10:09;96221.16;;;15.97;55.81
44751;BME280;30477;48.224;11.470;2023-05-24T08:12:41;96227.69;;;15.93;55.89
44751;BME280;30477;48.224;11.470;2023-05-24T08:15:07;96227.53;;;15.94;55.80
44751;BME280;30477;48.224;11.470;2023-05-24T08:17:32;96234.34;;;15.95;55.81
44751;BME280;30477;48.224;11.470;2023-05-24T08:19:58;96229.53;;;15.84;55.55
44751;BME280;30477;48.224;11.470;2023-05-24T08:22:23;96241.78;;;15.67;55.98
44751;BME280;30477;48.224;11.470;2023-05-24T08:24:49;96236.94;;;15.39;55.86
44751;BME280;30477;48.224;11.470;2023-05-24T08:27:15;96240.50;;;15.47;56.45
44751;BME280;30477;48.224;11.470;2023-05-24T08:29:41;96243.59;;;15.58;56.62
44751;BME280;30477;48.224;11.470;2023-05-24T08:32:06;96241.13;;;15.65;56.53
44751;BME280;30477;48.224;11.470;2023-05-24T08:34:37;96239.47;;;15.80;56.58
44751;BME280;30477;48.224;11.470;2023-05-24T08:37:03;96240.78;;;15.68;56.97
44751;BME280;30477;48.224;11.470;2023-05-24T08:39:29;96243.22;;;15.70;56.35
44751;BME280;30477;48.224;11.470;2023-05-24T08:41:56;96241.97;;;15.49;56.86
44751;BME280;30477;48.224;11.470;2023-05-24T08:44:22;96246.84;;;15.60;56.56
44751;BME280;30477;48.224;11.470;2023-05-24T08:46:48;96247.00;;;15.59;56.36
44751;BME280;30477;48.224;11.470;2023-05-24T08:49:15;96250.28;;;15.53;55.90
44751;BME280;30477;48.224;11.470;2023-05-24T08:51:42;96250.94;;;15.55;55.84
44751;BME280;30477;48.224;11.470;2023-05-24T08:54:09;96249.28;;;15.62;55.41
44751;BME280;30477;48.224;11.470;2023-05-24T08:56:35;96252.38;;;15.66;55.49
44751;BME280;30477;48.224;11.470;2023-05-24T08:59:01;96255.31;;;15.71;55.47
44751;BME280;30477;48.224;11.470;2023-05-24T09:01:28;96247.00;;;15.67;55.68
44751;BME280;30477;48.224;11.470;2023-05-24T09:03:54;96245.53;;;15.65;56.58
44751;BME280;30477;48.224;11.470;2023-05-24T09:06:21;96231.97;;;15.69;56.28
44751;BME280;30477;48.224;11.470;2023-05-24T09:08:46;96230.81;;;15.88;55.97
44751;BME280;30477;48.224;11.470;2023-05-24T09:11:17;96241.38;;;15.95;55.79
44751;BME280;30477;48.224;11.470;2023-05-24T09:13:44;96234.31;;;16.03;55.56
44751;BME280;30477;48.224;11.470;2023-05-24T09:16:09;96240.00;;;16.15;54.62
44751;BME280;30477;48.224;11.470;2023-05-24T09:18:35;96240.66;;;16.17;54.51
44751;BME280;30477;48.224;11.470;2023-05-24T09:21:00;96246.66;;;16.18;54.12
44751;BME280;30477;48.224;11.470;2023-05-24T09:23:26;96243.63;;;16.06;53.36
44751;BME280;30477;48.224;11.470;2023-05-24T09:25:52;96247.63;;;15.86;53.98
44751;BME280;30477;48.224;11.470;2023-05-24T09:28:18;96245.31;;;15.91;54.24
44751;BME280;30477;48.224;11.470;2023-05-24T09:30:56;96248.91;;;15.90;54.40
44751;BME280;30477;48.224;11.470;2023-05-24T09:33:23;96248.28;;;15.88;54.29
44751;BME280;30477;48.224;11.470;2023-05-24T09:35:56;96246.91;;;16.00;54.22
44751;BME280;30477;48.224;11.470;2023-05-24T09:38:23;96244.78;;;16.03;53.59
44751;BME280;30477;48.224;11.470;2023-05-24T09:41:06;96244.19;;;15.77;54.30
44751;BME280;30477;48.224;11.470;2023-05-24T09:43:33;96246.66;;;15.78;54.62
44751;BME280;30477;48.224;11.470;2023-05-24T09:46:02;96239.81;;;15.77;54.76
44751;BME280;30477;48.224;11.470;2023-05-24T09:48:29;96244.88;;;15.62;55.17
44751;BME280;30477;48.224;11.470;2023-05-24T09:51:01;96250.91;;;15.71;54.86
44751;BME280;30477;48.224;11.470;2023-05-24T09:53:27;96249.63;;;15.75;54.39
44751;BME280;30477;48.224;11.470;2023-05-24T09:56:03;96245.19;;;15.68;53.85
44751;BME280;30477;48.224;11.470;2023-05-24T09:58:30;96246.00;;;15.68;53.25
44751;BME280;30477;48.224;11.470;2023-05-24T10:01:06;96259.38;;;15.65;53.46
44751;BME280;30477;48.224;11.470;2023-05-24T10:03:32;96253.38;;;15.73;52.95
44751;BME280;30477;48.224;11.470;2023-05-24T10:05:58;96240.78;;;15.76;52.51
44751;BME280;30477;48.224;11.470;2023-05-24T10:08:24;96252.84;;;15.86;52.29
44751;BME280;30477;48.224;11.470;2023-05-24T10:10:50;96249.50;;;16.00;52.20
44751;BME280;30477;48.224;11.470;2023-05-24T10:13:16;96249.03;;;16.05;52.48
44751;BME280;30477;48.224;11.470;2023-05-24T10:15:43;96257.97;;;16.10;51.85
44751;BME280;30477;48.224;11.470;2023-05-24T10:18:09;96258.78;;;16.11;51.35
44751;BME280;30477;48.224;11.470;2023-05-24T10:20:35;96259.94;;;16.00;51.57
44751;BME280;30477;48.224;11.470;2023-05-24T10:23:03;96261.91;;;15.98;51.46
44751;BME280;30477;48.224;11.470;2023-05-24T10:25:34;96268.16;;;15.89;52.13
44751;BME280;30477;48.224;11.470;2023-05-24T10:28:07;96265.38;;;15.98;52.43
44751;BME280;30477;48.224;11.470;2023-05-24T10:30:42;96258.94;;;16.09;52.22
44751;BME280;30477;48.224;11.470;2023-05-24T10:33:11;96264.97;;;16.10;51.14
44751;BME280;30477;48.224;11.470;2023-05-24T10:35:38;96273.06;;;15.92;50.87
44751;BME280;30477;48.224;11.470;2023-05-24T10:38:06;96270.13;;;15.87;50.57
44751;BME280;30477;48.224;11.470;2023-05-24T10:40:32;96266.53;;;15.96;50.18
44751;BME280;30477;48.224;11.470;2023-05-24T10:42:58;96267.63;;;16.01;49.84
44751;BME280;30477;48.224;11.470;2023-05-24T10:47:49;96263.53;;;16.07;50.46
44751;BME280;30477;48.224;11.470;2023-05-24T10:50:20;96273.34;;;15.97;50.91
44751;BME280;30477;48.224;11.470;2023-05-24T10:52:49;96258.19;;;15.92;51.42
44751;BME280;30477;48.224;11.470;2023-05-24T10:55:14;96260.59;;;16.02;50.80
44751;BME280;30477;48.224;11.470;2023-05-24T10:57:43;96260.59;;;16.02;50.63
44751;BME280;30477;48.224;11.470;2023-05-24T11:02:50;96265.56;;;15.80;51.00
44751;BME280;30477;48.224;11.470;2023-05-24T11:05:16;96270.78;;;15.80;51.53
44751;BME280;30477;48.224;11.470;2023-05-24T11:07:42;96275.50;;;15.85;52.02
44751;BME280;30477;48.224;11.470;2023-05-24T11:10:30;96271.13;;;15.77;51.42
44751;BME280;30477;48.224;11.470;2023-05-24T11:12:59;96273.72;;;15.86;51.42
44751;BME280;30477;48.224;11.470;2023-05-24T11:15:26;96274.63;;;16.09;50.84
44751;BME280;30477;48.224;11.470;2023-05-24T11:20:34;96273.66;;;16.02;51.21
44751;BME280;30477;48.224;11.470;2023-05-24T11:23:04;96270.22;;;16.01;50.93
44751;BME280;30477;48.224;11.470;2023-05-24T11:25:31;96261.25;;;16.04;50.45
44751;BME280;30477;48.224;11.470;2023-05-24T11:27:58;96256.63;;;16.14;50.08
44751;BME280;30477;48.224;11.470;2023-05-24T11:30:24;96255.34;;;16.10;50.25
44751;BME280;30477;48.224;11.470;2023-05-24T11:32:50;96253.06;;;16.15;50.39
44751;BME280;30477;48.224;11.470;2023-05-24T11:35:18;96267.75;;;16.08;50.59
44751;BME280;30477;48.224;11.470;2023-05-24T11:37:43;96259.06;;;15.76;51.20
44751;BME280;30477;48.224;11.470;2023-05-24T11:40:10;96259.69;;;15.70;51.38
44751;BME280;30477;48.224;11.470;2023-05-24T11:42:37;96258.44;;;15.50;51.48
44751;BME280;30477;48.224;11.470;2023-05-24T11:45:06;96255.13;;;15.64;51.52
44751;BME280;30477;48.224;11.470;2023-05-24T11:47:38;96256.59;;;15.83;52.29
44751;BME280;30477;48.224;11.470;2023-05-24T11:50:05;96265.53;;;15.97;51.70
44751;BME280;30477;48.224;11.470;2023-05-24T11:52:31;96260.91;;;16.07;50.95
44751;BME280;30477;48.224;11.470;2023-05-24T11:54:56;96248.50;;;16.09;50.77
44751;BME280;30477;48.224;11.470;2023-05-24T11:57:29;96243.91;;;16.19;50.24
44751;BME280;30477;48.224;11.470;2023-05-24T11:59:55;96252.38;;;16.21;49.79
44751;BME280;30477;48.224;11.470;2023-05-24T12:02:22;96254.06;;;16.06;49.56
44751;BME280;30477;48.224;11.470;2023-05-24T12:04:47;96244.63;;;15.97;50.36
44751;BME280;30477;48.224;11.470;2023-05-24T12:07:13;96258.38;;;15.91;50.10
44751;BME280;30477;48.224;11.470;2023-05-24T12:09:40;96259.50;;;15.96;50.73
44751;BME280;30477;48.224;11.470;2023-05-24T12:12:05;96259.75;;;16.10;49.87
44751;BME280;30477;48.224;11.470;2023-05-24T12:14:32;96258.44;;;16.14;50.08
44751;BME280;30477;48.224;11.470;2023-05-24T12:16:59;96255.97;;;16.20;49.47
44751;BME280;30477;48.224;11.470;2023-05-24T12:19:31;96259.56;;;16.19;49.48
44751;BME280;30477;48.224;11.470;2023-05-24T12:22:03;96261.72;;;16.08;49.78
44751;BME280;30477;48.224;11.470;2023-05-24T12:24:32;96256.63;;;16.14;49.50
44751;BME280;30477;48.224;11.470;2023-05-24T12:27:02;96255.97;;;16.20;49.80
44751;BME280;30477;48.224;11.470;2023-05-24T12:29:34;96254.28;;;16.36;49.71
44751;BME280;30477;48.224;11.470;2023-05-24T12:32:01;96254.94;;;16.30;48.65
44751;BME280;30477;48.224;11.470;2023-05-24T12:34:27;96255.28;;;16.27;48.17
44751;BME280;30477;48.224;11.470;2023-05-24T12:36:54;96254.59;;;16.33;48.65
44751;BME280;30477;48.224;11.470;2023-05-24T12:39:21;96255.03;;;16.44;48.92
44751;BME280;30477;48.224;11.470;2023-05-24T12:41:59;96255.44;;;16.56;48.32
44751;BME280;30477;48.224;11.470;2023-05-24T12:44:33;96253.56;;;16.42;48.24
44751;BME280;30477;48.224;11.470;2023-05-24T12:47:00;96258.16;;;16.40;48.69
44751;BME280;30477;48.224;11.470;2023-05-24T12:49:26;96253.22;;;16.45;48.10
44751;BME280;30477;48.224;11.470;2023-05-24T12:51:52;96256.41;;;16.32;48.34
44751;BME280;30477;48.224;11.470;2023-05-24T12:54:23;96260.84;;;16.23;47.97
44751;BME280;30477;48.224;11.470;2023-05-24T12:56:52;96256.31;;;16.17;48.41
44751;BME280;30477;48.224;11.470;2023-05-24T12:59:18;96252.34;;;16.30;48.51
44751;BME280;30477;48.224;11.470;2023-05-24T13:01:43;96245.44;;;16.37;48.18
44751;BME280;30477;48.224;11.470;2023-05-24T13:04:18;96243.81;;;16.36;48.86
44751;BME280;30477;48.224;11.470;2023-05-24T13:06:45;96251.69;;;16.28;48.71
44751;BME280;30477;48.224;11.470;2023-05-24T13:09:10;96247.47;;;16.18;48.79
44751;BME280;30477;48.224;11.470;2023-05-24T13:11:36;96241.66;;;16.08;48.27
44751;BME280;30477;48.224;11.470;2023-05-24T13:14:02;96241.94;;;15.74;47.83